sensor_id;sensor_type;location;lat;lon;timestamp;P1;durP1;ratioP1;P2;durP2;ratioP2
12208;SDS011;6167;43.080;25.634;2023-05-07T00:01:19;8.80;;;7.67;;
12208;SDS011;6167;43.080;25.634;2023-05-07T00:03:47;7.93;;;7.13;;
12208;SDS011;6167;43.080;25.634;2023-05-07T00:06:14;8.27;;;7.47;;
12208;SDS011;6167;43.080;25.634;2023-05-07T00:08:42;10.63;;;7.80;;
12208;SDS011;6167;43.080;25.634;2023-05-07T00:11:09;9.57;;;8.57;;
12208;SDS011;6167;43.080;25.634;2023-05-07T00:13:40;9.30;;;8.40;;
12208;SDS011;6167;43.080;25.634;2023-05-07T00:16:09;8.60;;;7.80;;
12208;SDS011;6167;43.080;25.634;2023-05-07T00:18:36;8.57;;;7.63;;
12208;SDS011;6167;43.080;25.634;2023-05-07T00:21:03;9.50;;;8.17;;
12208;SDS011;6167;43.080;25.634;2023-05-07T00:23:30;9.03;;;8.13;;
12208;SDS011;6167;43.080;25.634;2023-05-07T00:26:02;10.50;;;8.50;;
12208;SDS011;6167;43.080;25.634;2023-05-07T00:28:29;10.67;;;8.07;;
12208;SDS011;6167;43.080;25.634;2023-05-07T00:30:56;8.37;;;7.53;;
12208;SDS011;6167;43.080;25.634;2023-05-07T00:33:25;8.47;;;7.67;;
12208;SDS011;6167;43.080;25.634;2023-05-07T00:35:52;8.57;;;7.70;;
12208;SDS011;6167;43.080;25.634;2023-05-07T00:38:19;8.97;;;8.07;;
12208;SDS011;6167;43.080;25.634;2023-05-07T00:40:49;7.83;;;7.03;;
12208;SDS011;6167;43.080;25.634;2023-05-07T00:43:16;10.80;;;7.80;;
12208;SDS011;6167;43.080;25.634;2023-05-07T00:45:43;9.83;;;7.57;;
12208;SDS011;6167;43.080;25.634;2023-05-07T00:48:10;8.50;;;7.70;;
12208;SDS011;6167;43.080;25.634;2023-05-07T00:50:39;8.73;;;7.80;;
12208;SDS011;6167;43.080;25.634;2023-05-07T00:53:06;7.93;;;7.13;;
12208;SDS011;6167;43.080;25.634;2023-05-07T00:55:35;8.70;;;7.47;;
12208;SDS011;6167;43.080;25.634;2023-05-07T00:58:02;8.67;;;7.77;;
12208;SDS011;6167;43.080;25.634;2023-05-07T01:00:29;9.10;;;8.03;;
12208;SDS011;6167;43.080;25.634;2023-05-07T01:02:58;8.73;;;7.87;;
12208;SDS011;6167;43.080;25.634;2023-05-07T01:05:25;8.73;;;7.83;;
12208;SDS011;6167;43.080;25.634;2023-05-07T01:07:55;10.27;;;8.00;;
12208;SDS011;6167;43.080;25.634;2023-05-07T01:10:24;8.93;;;7.60;;
12208;SDS011;6167;43.080;25.634;2023-05-07T01:12:51;10.00;;;9.00;;
12208;SDS011;6167;43.080;25.634;2023-05-07T01:15:19;10.40;;;8.90;;
12208;SDS011;6167;43.080;25.634;2023-05-07T01:17:45;10.07;;;8.27;;
12208;SDS011;6167;43.080;25.634;2023-05-07T01:20:12;10.93;;;7.83;;
12208;SDS011;6167;43.080;25.634;2023-05-07T01:22:42;9.43;;;8.30;;
12208;SDS011;6167;43.080;25.634;2023-05-07T01:25:09;8.80;;;8.00;;
12208;SDS011;6167;43.080;25.634;2023-05-07T01:27:36;14.77;;;10.17;;
12208;SDS011;6167;43.080;25.634;2023-05-07T01:30:04;13.50;;;10.20;;
12208;SDS011;6167;43.080;25.634;2023-05-07T01:32:32;15.07;;;10.43;;
12208;SDS011;6167;43.080;25.634;2023-05-07T01:35:02;12.73;;;9.30;;
12208;SDS011;6167;43.080;25.634;2023-05-07T01:37:39;12.37;;;9.60;;
12208;SDS011;6167;43.080;25.634;2023-05-07T01:40:09;10.30;;;8.93;;
12208;SDS011;6167;43.080;25.634;2023-05-07T01:42:38;12.10;;;9.30;;
12208;SDS011;6167;43.080;25.634;2023-05-07T01:45:05;10.33;;;8.80;;
12208;SDS011;6167;43.080;25.634;2023-05-07T01:47:33;10.63;;;8.73;;
12208;SDS011;6167;43.080;25.634;2023-05-07T01:50:00;10.10;;;8.47;;
12208;SDS011;6167;43.080;25.634;2023-05-07T01:52:27;11.30;;;8.30;;
12208;SDS011;6167;43.080;25.634;2023-05-07T01:54:54;13.97;;;9.30;;
12208;SDS011;6167;43.080;25.634;2023-05-07T01:57:22;13.77;;;9.93;;
12208;SDS011;6167;43.080;25.634;2023-05-07T01:59:49;13.47;;;10.70;;
12208;SDS011;6167;43.080;25.634;2023-05-07T02:02:16;22.40;;;12.43;;
12208;SDS011;6167;43.080;25.634;2023-05-07T02:04:43;17.53;;;13.03;;
12208;SDS011;6167;43.080;25.634;2023-05-07T02:07:10;14.37;;;11.53;;
12208;SDS011;6167;43.080;25.634;2023-05-07T02:09:37;17.03;;;12.30;;
12208;SDS011;6167;43.080;25.634;2023-05-07T02:12:04;20.80;;;13.57;;
12208;SDS011;6167;43.080;25.634;2023-05-07T02:14:33;23.03;;;14.50;;
12208;SDS011;6167;43.080;25.634;2023-05-07T02:17:02;23.87;;;14.27;;
12208;SDS011;6167;43.080;25.634;2023-05-07T02:19:29;22.57;;;15.40;;
12208;SDS011;6167;43.080;25.634;2023-05-07T02:21:55;26.83;;;15.60;;
12208;SDS011;6167;43.080;25.634;2023-05-07T02:24:22;37.90;;;18.47;;
12208;SDS011;6167;43.080;25.634;2023-05-07T02:26:49;43.73;;;19.70;;
12208;SDS011;6167;43.080;25.634;2023-05-07T02:29:16;27.87;;;17.00;;
12208;SDS011;6167;43.080;25.634;2023-05-07T02:31:44;31.60;;;18.30;;
12208;SDS011;6167;43.080;25.634;2023-05-07T02:34:11;46.63;;;21.00;;
12208;SDS011;6167;43.080;25.634;2023-05-07T02:36:37;35.47;;;20.77;;
12208;SDS011;6167;43.080;25.634;2023-05-07T02:39:05;37.07;;;19.97;;
12208;SDS011;6167;43.080;25.634;2023-05-07T02:41:31;37.90;;;20.77;;
12208;SDS011;6167;43.080;25.634;2023-05-07T02:43:58;32.43;;;20.50;;
12208;SDS011;6167;43.080;25.634;2023-05-07T02:46:25;76.90;;;23.03;;
12208;SDS011;6167;43.080;25.634;2023-05-07T02:48:53;33.47;;;22.40;;
12208;SDS011;6167;43.080;25.634;2023-05-07T02:51:21;35.63;;;23.73;;
12208;SDS011;6167;43.080;25.634;2023-05-07T02:53:48;35.47;;;21.10;;
12208;SDS011;6167;43.080;25.634;2023-05-07T02:56:15;31.73;;;19.73;;
12208;SDS011;6167;43.080;25.634;2023-05-07T02:58:42;28.20;;;21.07;;
12208;SDS011;6167;43.080;25.634;2023-05-07T03:01:09;30.47;;;19.90;;
12208;SDS011;6167;43.080;25.634;2023-05-07T03:03:36;32.17;;;20.00;;
12208;SDS011;6167;43.080;25.634;2023-05-07T03:06:04;35.47;;;20.60;;
12208;SDS011;6167;43.080;25.634;2023-05-07T03:08:31;38.30;;;19.97;;
12208;SDS011;6167;43.080;25.634;2023-05-07T03:10:58;36.90;;;18.57;;
12208;SDS011;6167;43.080;25.634;2023-05-07T03:13:25;36.37;;;19.30;;
12208;SDS011;6167;43.080;25.634;2023-05-07T03:15:52;49.60;;;20.10;;
12208;SDS011;6167;43.080;25.634;2023-05-07T03:18:19;51.63;;;20.63;;
12208;SDS011;6167;43.080;25.634;2023-05-07T03:20:45;42.47;;;19.23;;
12208;SDS011;6167;43.080;25.634;2023-05-07T03:23:14;49.80;;;20.57;;
12208;SDS011;6167;43.080;25.634;2023-05-07T03:25:40;33.47;;;19.83;;
12208;SDS011;6167;43.080;25.634;2023-05-07T03:28:07;57.00;;;21.77;;
12208;SDS011;6167;43.080;25.634;2023-05-07T03:30:34;48.10;;;20.20;;
12208;SDS011;6167;43.080;25.634;2023-05-07T03:33:02;30.80;;;19.93;;
12208;SDS011;6167;43.080;25.634;2023-05-07T03:35:28;38.27;;;21.07;;
12208;SDS011;6167;43.080;25.634;2023-05-07T03:37:55;34.17;;;21.43;;
12208;SDS011;6167;43.080;25.634;2023-05-07T03:40:23;29.37;;;19.73;;
12208;SDS011;6167;43.080;25.634;2023-05-07T03:42:50;32.67;;;19.87;;
12208;SDS011;6167;43.080;25.634;2023-05-07T03:45:17;26.50;;;19.00;;
12208;SDS011;6167;43.080;25.634;2023-05-07T03:47:44;114.77;;;20.70;;
12208;SDS011;6167;43.080;25.634;2023-05-07T03:50:11;41.50;;;18.37;;
12208;SDS011;6167;43.080;25.634;2023-05-07T03:52:38;24.90;;;16.63;;
12208;SDS011;6167;43.080;25.634;2023-05-07T03:55:05;29.93;;;16.97;;
12208;SDS011;6167;43.080;25.634;2023-05-07T03:57:34;43.00;;;16.57;;
12208;SDS011;6167;43.080;25.634;2023-05-07T04:00:01;25.93;;;16.77;;
12208;SDS011;6167;43.080;25.634;2023-05-07T04:02:29;24.33;;;16.20;;
12208;SDS011;6167;43.080;25.634;2023-05-07T04:04:56;58.07;;;16.57;;
12208;SDS011;6167;43.080;25.634;2023-05-07T04:07:22;43.10;;;17.10;;
12208;SDS011;6167;43.080;25.634;2023-05-07T04:09:49;31.00;;;16.17;;
12208;SDS011;6167;43.080;25.634;2023-05-07T04:12:16;29.07;;;16.50;;
12208;SDS011;6167;43.080;25.634;2023-05-07T04:14:45;22.03;;;16.37;;
12208;SDS011;6167;43.080;25.634;2023-05-07T04:17:11;21.53;;;17.27;;
12208;SDS011;6167;43.080;25.634;2023-05-07T04:19:38;27.23;;;17.00;;
12208;SDS011;6167;43.080;25.634;2023-05-07T04:22:10;25.03;;;17.70;;
12208;SDS011;6167;43.080;25.634;2023-05-07T04:24:37;25.57;;;18.80;;
12208;SDS011;6167;43.080;25.634;2023-05-07T04:27:04;20.80;;;15.13;;
12208;SDS011;6167;43.080;25.634;2023-05-07T04:29:31;17.83;;;12.57;;
12208;SDS011;6167;43.080;25.634;2023-05-07T04:32:00;18.73;;;13.70;;
12208;SDS011;6167;43.080;25.634;2023-05-07T04:34:26;21.07;;;13.67;;
12208;SDS011;6167;43.080;25.634;2023-05-07T04:36:54;19.00;;;11.83;;
12208;SDS011;6167;43.080;25.634;2023-05-07T04:39:23;20.17;;;14.60;;
12208;SDS011;6167;43.080;25.634;2023-05-07T04:41:50;17.17;;;12.53;;
12208;SDS011;6167;43.080;25.634;2023-05-07T04:44:17;17.37;;;10.73;;
12208;SDS011;6167;43.080;25.634;2023-05-07T04:46:44;17.50;;;11.13;;
12208;SDS011;6167;43.080;25.634;2023-05-07T04:49:12;15.37;;;10.40;;
12208;SDS011;6167;43.080;25.634;2023-05-07T04:51:39;17.57;;;10.77;;
12208;SDS011;6167;43.080;25.634;2023-05-07T04:54:09;20.93;;;12.37;;
12208;SDS011;6167;43.080;25.634;2023-05-07T04:56:36;19.53;;;11.03;;
12208;SDS011;6167;43.080;25.634;2023-05-07T04:59:03;16.33;;;9.70;;
12208;SDS011;6167;43.080;25.634;2023-05-07T05:01:30;16.30;;;9.97;;
12208;SDS011;6167;43.080;25.634;2023-05-07T05:03:57;14.10;;;8.33;;
12208;SDS011;6167;43.080;25.634;2023-05-07T05:06:26;12.53;;;8.20;;
12208;SDS011;6167;43.080;25.634;2023-05-07T05:08:53;12.00;;;8.07;;
12208;SDS011;6167;43.080;25.634;2023-05-07T05:11:21;10.03;;;7.07;;
12208;SDS011;6167;43.080;25.634;2023-05-07T05:13:48;9.17;;;7.07;;
12208;SDS011;6167;43.080;25.634;2023-05-07T05:16:16;16.40;;;13.00;;
12208;SDS011;6167;43.080;25.634;2023-05-07T05:18:43;16.10;;;11.47;;
12208;SDS011;6167;43.080;25.634;2023-05-07T05:21:09;8.73;;;6.43;;
12208;SDS011;6167;43.080;25.634;2023-05-07T05:23:38;8.48;;;5.60;;
12208;SDS011;6167;43.080;25.634;2023-05-07T05:26:05;9.07;;;5.78;;
12208;SDS011;6167;43.080;25.634;2023-05-07T05:28:33;9.95;;;6.03;;
12208;SDS011;6167;43.080;25.634;2023-05-07T05:31:00;8.88;;;5.50;;
12208;SDS011;6167;43.080;25.634;2023-05-07T05:33:27;7.25;;;5.40;;
12208;SDS011;6167;43.080;25.634;2023-05-07T05:35:54;7.93;;;5.90;;
12208;SDS011;6167;43.080;25.634;2023-05-07T05:38:22;8.40;;;5.80;;
12208;SDS011;6167;43.080;25.634;2023-05-07T05:40:51;8.98;;;5.57;;
12208;SDS011;6167;43.080;25.634;2023-05-07T05:43:18;9.88;;;7.55;;
12208;SDS011;6167;43.080;25.634;2023-05-07T05:45:45;11.90;;;6.90;;
12208;SDS011;6167;43.080;25.634;2023-05-07T05:48:12;11.80;;;7.10;;
12208;SDS011;6167;43.080;25.634;2023-05-07T05:50:39;10.15;;;7.85;;
12208;SDS011;6167;43.080;25.634;2023-05-07T05:53:06;13.35;;;8.18;;
12208;SDS011;6167;43.080;25.634;2023-05-07T05:55:33;13.68;;;8.15;;
12208;SDS011;6167;43.080;25.634;2023-05-07T05:58:03;23.80;;;20.38;;
12208;SDS011;6167;43.080;25.634;2023-05-07T06:00:30;14.45;;;12.07;;
12208;SDS011;6167;43.080;25.634;2023-05-07T06:02:57;19.23;;;14.70;;
12208;SDS011;6167;43.080;25.634;2023-05-07T06:05:26;18.42;;;14.45;;
12208;SDS011;6167;43.080;25.634;2023-05-07T06:07:53;17.20;;;12.88;;
12208;SDS011;6167;43.080;25.634;2023-05-07T06:10:20;21.50;;;12.88;;
12208;SDS011;6167;43.080;25.634;2023-05-07T06:12:47;15.27;;;11.27;;
12208;SDS011;6167;43.080;25.634;2023-05-07T06:15:16;15.82;;;11.52;;
12208;SDS011;6167;43.080;25.634;2023-05-07T06:17:43;12.60;;;10.55;;
12208;SDS011;6167;43.080;25.634;2023-05-07T06:20:10;20.52;;;15.90;;
12208;SDS011;6167;43.080;25.634;2023-05-07T06:22:38;14.07;;;12.18;;
12208;SDS011;6167;43.080;25.634;2023-05-07T06:25:06;8.65;;;6.90;;
12208;SDS011;6167;43.080;25.634;2023-05-07T06:27:35;9.30;;;7.05;;
12208;SDS011;6167;43.080;25.634;2023-05-07T06:30:05;11.85;;;7.07;;
12208;SDS011;6167;43.080;25.634;2023-05-07T06:32:34;7.88;;;7.07;;
12208;SDS011;6167;43.080;25.634;2023-05-07T06:35:01;9.35;;;6.93;;
12208;SDS011;6167;43.080;25.634;2023-05-07T06:37:28;6.80;;;5.72;;
12208;SDS011;6167;43.080;25.634;2023-05-07T06:39:55;6.45;;;4.65;;
12208;SDS011;6167;43.080;25.634;2023-05-07T06:42:22;5.60;;;5.07;;
12208;SDS011;6167;43.080;25.634;2023-05-07T06:44:49;6.75;;;5.13;;
12208;SDS011;6167;43.080;25.634;2023-05-07T06:47:16;6.95;;;6.00;;
12208;SDS011;6167;43.080;25.634;2023-05-07T06:49:45;7.70;;;6.25;;
12208;SDS011;6167;43.080;25.634;2023-05-07T06:52:13;6.45;;;5.85;;
12208;SDS011;6167;43.080;25.634;2023-05-07T06:54:40;6.40;;;5.80;;
12208;SDS011;6167;43.080;25.634;2023-05-07T06:57:07;5.57;;;5.03;;
12208;SDS011;6167;43.080;25.634;2023-05-07T06:59:34;5.20;;;4.70;;
12208;SDS011;6167;43.080;25.634;2023-05-07T07:02:03;5.95;;;4.68;;
12208;SDS011;6167;43.080;25.634;2023-05-07T07:04:33;11.88;;;6.93;;
12208;SDS011;6167;43.080;25.634;2023-05-07T07:07:02;6.13;;;4.30;;
12208;SDS011;6167;43.080;25.634;2023-05-07T07:09:29;4.53;;;3.92;;
12208;SDS011;6167;43.080;25.634;2023-05-07T07:11:57;6.63;;;4.68;;
12208;SDS011;6167;43.080;25.634;2023-05-07T07:14:25;6.05;;;3.50;;
12208;SDS011;6167;43.080;25.634;2023-05-07T07:16:53;3.15;;;2.92;;
12208;SDS011;6167;43.080;25.634;2023-05-07T07:19:20;6.65;;;3.97;;
12208;SDS011;6167;43.080;25.634;2023-05-07T07:21:47;4.18;;;3.00;;
12208;SDS011;6167;43.080;25.634;2023-05-07T07:24:16;11.30;;;10.15;;
12208;SDS011;6167;43.080;25.634;2023-05-07T07:26:48;8.27;;;3.25;;
12208;SDS011;6167;43.080;25.634;2023-05-07T07:29:16;4.95;;;3.47;;
12208;SDS011;6167;43.080;25.634;2023-05-07T07:31:43;8.38;;;4.85;;
12208;SDS011;6167;43.080;25.634;2023-05-07T07:34:10;4.68;;;3.00;;
12208;SDS011;6167;43.080;25.634;2023-05-07T07:36:37;5.75;;;3.40;;
12208;SDS011;6167;43.080;25.634;2023-05-07T07:39:05;4.30;;;2.60;;
12208;SDS011;6167;43.080;25.634;2023-05-07T07:41:34;3.72;;;2.90;;
12208;SDS011;6167;43.080;25.634;2023-05-07T07:44:01;4.65;;;2.72;;
12208;SDS011;6167;43.080;25.634;2023-05-07T07:46:32;2.72;;;2.40;;
12208;SDS011;6167;43.080;25.634;2023-05-07T07:48:59;3.00;;;2.50;;
12208;SDS011;6167;43.080;25.634;2023-05-07T07:51:26;7.60;;;2.83;;
12208;SDS011;6167;43.080;25.634;2023-05-07T07:53:56;3.58;;;2.60;;
12208;SDS011;6167;43.080;25.634;2023-05-07T07:56:24;3.00;;;2.80;;
12208;SDS011;6167;43.080;25.634;2023-05-07T07:58:52;3.17;;;2.80;;
12208;SDS011;6167;43.080;25.634;2023-05-07T08:01:19;2.58;;;2.30;;
12208;SDS011;6167;43.080;25.634;2023-05-07T08:03:46;4.60;;;2.60;;
12208;SDS011;6167;43.080;25.634;2023-05-07T08:06:12;3.08;;;2.35;;
12208;SDS011;6167;43.080;25.634;2023-05-07T08:08:39;4.32;;;2.33;;
12208;SDS011;6167;43.080;25.634;2023-05-07T08:11:06;2.88;;;2.00;;
12208;SDS011;6167;43.080;25.634;2023-05-07T08:13:33;2.58;;;1.90;;
12208;SDS011;6167;43.080;25.634;2023-05-07T08:16:02;2.00;;;1.90;;
12208;SDS011;6167;43.080;25.634;2023-05-07T08:18:29;4.22;;;1.98;;
12208;SDS011;6167;43.080;25.634;2023-05-07T08:20:56;2.70;;;2.00;;
12208;SDS011;6167;43.080;25.634;2023-05-07T08:23:23;2.75;;;2.55;;
12208;SDS011;6167;43.080;25.634;2023-05-07T08:25:50;2.53;;;2.33;;
12208;SDS011;6167;43.080;25.634;2023-05-07T08:28:17;2.03;;;1.80;;
12208;SDS011;6167;43.080;25.634;2023-05-07T08:30:44;3.60;;;2.20;;
12208;SDS011;6167;43.080;25.634;2023-05-07T08:33:13;2.20;;;1.65;;
12208;SDS011;6167;43.080;25.634;2023-05-07T08:35:39;1.98;;;1.88;;
12208;SDS011;6167;43.080;25.634;2023-05-07T08:38:06;5.43;;;2.10;;
12208;SDS011;6167;43.080;25.634;2023-05-07T08:40:35;3.97;;;2.60;;
12208;SDS011;6167;43.080;25.634;2023-05-07T08:43:04;2.63;;;2.00;;
12208;SDS011;6167;43.080;25.634;2023-05-07T08:45:32;3.47;;;2.90;;
12208;SDS011;6167;43.080;25.634;2023-05-07T08:48:01;3.85;;;2.22;;
12208;SDS011;6167;43.080;25.634;2023-05-07T08:50:33;9.43;;;6.38;;
12208;SDS011;6167;43.080;25.634;2023-05-07T08:53:02;9.55;;;4.78;;
12208;SDS011;6167;43.080;25.634;2023-05-07T08:55:29;6.45;;;3.80;;
12208;SDS011;6167;43.080;25.634;2023-05-07T08:57:56;3.22;;;2.45;;
12208;SDS011;6167;43.080;25.634;2023-05-07T09:00:23;2.05;;;1.95;;
12208;SDS011;6167;43.080;25.634;2023-05-07T09:02:49;2.42;;;1.92;;
12208;SDS011;6167;43.080;25.634;2023-05-07T09:05:17;2.28;;;2.00;;
12208;SDS011;6167;43.080;25.634;2023-05-07T09:07:45;2.53;;;2.03;;
12208;SDS011;6167;43.080;25.634;2023-05-07T09:10:12;4.03;;;1.80;;
12208;SDS011;6167;43.080;25.634;2023-05-07T09:12:39;2.90;;;1.80;;
12208;SDS011;6167;43.080;25.634;2023-05-07T09:15:07;2.88;;;1.90;;
12208;SDS011;6167;43.080;25.634;2023-05-07T09:17:34;2.40;;;2.20;;
12208;SDS011;6167;43.080;25.634;2023-05-07T09:20:05;3.42;;;2.00;;
12208;SDS011;6167;43.080;25.634;2023-05-07T09:22:33;2.38;;;1.80;;
12208;SDS011;6167;43.080;25.634;2023-05-07T09:25:01;4.80;;;2.15;;
12208;SDS011;6167;43.080;25.634;2023-05-07T09:27:29;3.92;;;1.98;;
12208;SDS011;6167;43.080;25.634;2023-05-07T09:29:57;2.40;;;2.20;;
12208;SDS011;6167;43.080;25.634;2023-05-07T09:32:24;5.07;;;3.33;;
12208;SDS011;6167;43.080;25.634;2023-05-07T09:34:52;3.13;;;2.38;;
12208;SDS011;6167;43.080;25.634;2023-05-07T09:37:19;2.83;;;2.22;;
12208;SDS011;6167;43.080;25.634;2023-05-07T09:39:48;2.58;;;2.35;;
12208;SDS011;6167;43.080;25.634;2023-05-07T09:42:22;4.78;;;2.05;;
12208;SDS011;6167;43.080;25.634;2023-05-07T09:44:49;2.85;;;2.50;;
12208;SDS011;6167;43.080;25.634;2023-05-07T09:47:18;4.45;;;2.28;;
12208;SDS011;6167;43.080;25.634;2023-05-07T09:49:47;4.00;;;2.58;;
12208;SDS011;6167;43.080;25.634;2023-05-07T09:52:14;2.85;;;2.60;;
12208;SDS011;6167;43.080;25.634;2023-05-07T09:54:42;5.45;;;3.40;;
12208;SDS011;6167;43.080;25.634;2023-05-07T09:57:11;4.85;;;2.28;;
12208;SDS011;6167;43.080;25.634;2023-05-07T09:59:40;2.63;;;2.42;;
12208;SDS011;6167;43.080;25.634;2023-05-07T10:02:09;2.20;;;2.00;;
12208;SDS011;6167;43.080;25.634;2023-05-07T10:04:37;3.83;;;2.78;;
12208;SDS011;6167;43.080;25.634;2023-05-07T10:07:05;4.30;;;2.60;;
12208;SDS011;6167;43.080;25.634;2023-05-07T10:09:34;6.85;;;2.50;;
12208;SDS011;6167;43.080;25.634;2023-05-07T10:12:04;2.65;;;2.30;;
12208;SDS011;6167;43.080;25.634;2023-05-07T10:14:32;5.30;;;2.60;;
12208;SDS011;6167;43.080;25.634;2023-05-07T10:17:01;2.92;;;2.40;;
12208;SDS011;6167;43.080;25.634;2023-05-07T10:19:28;5.45;;;2.15;;
12208;SDS011;6167;43.080;25.634;2023-05-07T10:21:56;2.50;;;2.30;;
12208;SDS011;6167;43.080;25.634;2023-05-07T10:24:31;2.42;;;2.10;;
12208;SDS011;6167;43.080;25.634;2023-05-07T10:26:59;4.53;;;2.80;;
12208;SDS011;6167;43.080;25.634;2023-05-07T10:29:30;5.53;;;4.03;;
12208;SDS011;6167;43.080;25.634;2023-05-07T10:32:10;4.18;;;3.65;;
12208;SDS011;6167;43.080;25.634;2023-05-07T10:34:53;4.53;;;2.88;;
12208;SDS011;6167;43.080;25.634;2023-05-07T10:37:23;2.72;;;2.50;;
12208;SDS011;6167;43.080;25.634;2023-05-07T10:39:51;2.97;;;2.15;;
12208;SDS011;6167;43.080;25.634;2023-05-07T10:42:18;3.20;;;2.97;;
12208;SDS011;6167;43.080;25.634;2023-05-07T10:44:47;2.88;;;2.20;;
12208;SDS011;6167;43.080;25.634;2023-05-07T10:47:16;3.38;;;2.38;;
12208;SDS011;6167;43.080;25.634;2023-05-07T10:55:49;3.20;;;2.60;;
12208;SDS011;6167;43.080;25.634;2023-05-07T10:58:23;3.00;;;2.72;;
12208;SDS011;6167;43.080;25.634;2023-05-07T11:00:55;4.25;;;2.78;;
12208;SDS011;6167;43.080;25.634;2023-05-07T11:03:25;17.90;;;10.95;;
12208;SDS011;6167;43.080;25.634;2023-05-07T11:06:10;13.75;;;8.25;;
12208;SDS011;6167;43.080;25.634;2023-05-07T11:11:45;7.80;;;5.05;;
12208;SDS011;6167;43.080;25.634;2023-05-07T11:14:13;4.82;;;3.00;;
12208;SDS011;6167;43.080;25.634;2023-05-07T11:16:40;2.58;;;2.38;;
12208;SDS011;6167;43.080;25.634;2023-05-07T11:19:11;5.53;;;3.20;;
12208;SDS011;6167;43.080;25.634;2023-05-07T11:21:38;3.83;;;3.42;;
12208;SDS011;6167;43.080;25.634;2023-05-07T11:24:07;3.08;;;2.45;;
12208;SDS011;6167;43.080;25.634;2023-05-07T11:26:41;2.92;;;2.60;;
12208;SDS011;6167;43.080;25.634;2023-05-07T11:29:10;3.15;;;2.40;;
12208;SDS011;6167;43.080;25.634;2023-05-07T11:31:38;2.40;;;2.20;;
12208;SDS011;6167;43.080;25.634;2023-05-07T11:34:06;3.60;;;3.20;;
12208;SDS011;6167;43.080;25.634;2023-05-07T11:36:35;3.92;;;3.53;;
12208;SDS011;6167;43.080;25.634;2023-05-07T11:39:22;3.15;;;2.58;;
12208;SDS011;6167;43.080;25.634;2023-05-07T11:41:51;7.00;;;4.38;;
12208;SDS011;6167;43.080;25.634;2023-05-07T11:44:17;3.53;;;2.67;;
12208;SDS011;6167;43.080;25.634;2023-05-07T11:46:45;2.65;;;2.30;;
12208;SDS011;6167;43.080;25.634;2023-05-07T11:49:12;3.17;;;2.67;;
12208;SDS011;6167;43.080;25.634;2023-05-07T11:51:40;3.33;;;2.35;;
12208;SDS011;6167;43.080;25.634;2023-05-07T11:54:08;3.60;;;2.53;;
12208;SDS011;6167;43.080;25.634;2023-05-07T11:56:36;2.60;;;2.22;;
12208;SDS011;6167;43.080;25.634;2023-05-07T11:59:04;2.85;;;2.30;;
12208;SDS011;6167;43.080;25.634;2023-05-07T12:01:31;2.47;;;2.28;;
12208;SDS011;6167;43.080;25.634;2023-05-07T12:03:57;3.80;;;2.97;;
12208;SDS011;6167;43.080;25.634;2023-05-07T12:06:24;4.32;;;2.58;;
12208;SDS011;6167;43.080;25.634;2023-05-07T12:08:53;3.95;;;2.47;;
12208;SDS011;6167;43.080;25.634;2023-05-07T12:11:24;6.22;;;2.75;;
12208;SDS011;6167;43.080;25.634;2023-05-07T12:13:53;5.45;;;2.70;;
12208;SDS011;6167;43.080;25.634;2023-05-07T12:16:21;3.28;;;2.60;;
12208;SDS011;6167;43.080;25.634;2023-05-07T12:18:48;2.78;;;2.10;;
12208;SDS011;6167;43.080;25.634;2023-05-07T12:21:15;3.00;;;2.50;;
12208;SDS011;6167;43.080;25.634;2023-05-07T12:23:42;4.35;;;2.47;;
12208;SDS011;6167;43.080;25.634;2023-05-07T12:26:11;2.92;;;2.33;;
12208;SDS011;6167;43.080;25.634;2023-05-07T12:28:38;8.48;;;5.63;;
12208;SDS011;6167;43.080;25.634;2023-05-07T12:31:05;2.88;;;2.50;;
12208;SDS011;6167;43.080;25.634;2023-05-07T12:33:33;2.50;;;2.30;;
12208;SDS011;6167;43.080;25.634;2023-05-07T12:36:02;4.20;;;3.00;;
12208;SDS011;6167;43.080;25.634;2023-05-07T12:38:36;2.95;;;2.63;;
12208;SDS011;6167;43.080;25.634;2023-05-07T12:41:04;4.00;;;2.67;;
12208;SDS011;6167;43.080;25.634;2023-05-07T12:43:33;4.25;;;3.22;;
12208;SDS011;6167;43.080;25.634;2023-05-07T12:46:01;3.50;;;3.20;;
12208;SDS011;6167;43.080;25.634;2023-05-07T12:48:31;7.63;;;5.40;;
12208;SDS011;6167;43.080;25.634;2023-05-07T12:50:59;5.95;;;4.75;;
12208;SDS011;6167;43.080;25.634;2023-05-07T12:53:26;4.75;;;4.00;;
12208;SDS011;6167;43.080;25.634;2023-05-07T12:55:56;2.90;;;2.60;;
12208;SDS011;6167;43.080;25.634;2023-05-07T12:58:25;3.10;;;2.25;;
12208;SDS011;6167;43.080;25.634;2023-05-07T13:00:54;7.88;;;5.10;;
12208;SDS011;6167;43.080;25.634;2023-05-07T13:03:25;4.03;;;3.15;;
12208;SDS011;6167;43.080;25.634;2023-05-07T13:05:54;4.93;;;3.22;;
12208;SDS011;6167;43.080;25.634;2023-05-07T13:08:25;5.45;;;4.82;;
12208;SDS011;6167;43.080;25.634;2023-05-07T13:10:53;4.90;;;4.35;;
12208;SDS011;6167;43.080;25.634;2023-05-07T13:13:20;3.40;;;3.10;;
12208;SDS011;6167;43.080;25.634;2023-05-07T13:15:47;4.30;;;2.53;;
12208;SDS011;6167;43.080;25.634;2023-05-07T13:18:15;5.35;;;4.80;;
12208;SDS011;6167;43.080;25.634;2023-05-07T13:20:42;3.45;;;3.15;;
12208;SDS011;6167;43.080;25.634;2023-05-07T13:23:10;4.18;;;2.80;;
12208;SDS011;6167;43.080;25.634;2023-05-07T13:25:36;2.80;;;2.53;;
12208;SDS011;6167;43.080;25.634;2023-05-07T13:28:03;4.38;;;3.10;;
12208;SDS011;6167;43.080;25.634;2023-05-07T13:30:30;2.83;;;2.50;;
12208;SDS011;6167;43.080;25.634;2023-05-07T13:32:57;6.97;;;4.30;;
12208;SDS011;6167;43.080;25.634;2023-05-07T13:35:25;2.88;;;2.63;;
12208;SDS011;6167;43.080;25.634;2023-05-07T13:37:52;3.60;;;2.28;;
12208;SDS011;6167;43.080;25.634;2023-05-07T13:40:20;2.58;;;2.38;;
12208;SDS011;6167;43.080;25.634;2023-05-07T13:42:48;5.22;;;3.40;;
12208;SDS011;6167;43.080;25.634;2023-05-07T13:45:15;3.25;;;2.55;;
12208;SDS011;6167;43.080;25.634;2023-05-07T13:47:42;8.45;;;4.85;;
12208;SDS011;6167;43.080;25.634;2023-05-07T13:50:09;4.28;;;2.80;;
12208;SDS011;6167;43.080;25.634;2023-05-07T13:52:40;2.63;;;2.28;;
12208;SDS011;6167;43.080;25.634;2023-05-07T13:55:11;4.10;;;3.38;;
12208;SDS011;6167;43.080;25.634;2023-05-07T13:57:39;2.30;;;2.03;;
12208;SDS011;6167;43.080;25.634;2023-05-07T14:00:06;2.78;;;2.38;;
12208;SDS011;6167;43.080;25.634;2023-05-07T14:02:34;2.30;;;2.10;;
12208;SDS011;6167;43.080;25.634;2023-05-07T14:05:00;2.35;;;2.15;;
12208;SDS011;6167;43.080;25.634;2023-05-07T14:07:27;3.50;;;2.83;;
12208;SDS011;6167;43.080;25.634;2023-05-07T14:09:56;2.78;;;2.45;;
12208;SDS011;6167;43.080;25.634;2023-05-07T14:12:23;4.53;;;2.70;;
12208;SDS011;6167;43.080;25.634;2023-05-07T14:14:50;3.38;;;2.67;;
12208;SDS011;6167;43.080;25.634;2023-05-07T14:17:17;3.45;;;3.03;;
12208;SDS011;6167;43.080;25.634;2023-05-07T14:19:45;7.93;;;7.05;;
12208;SDS011;6167;43.080;25.634;2023-05-07T14:22:12;3.03;;;2.40;;
12208;SDS011;6167;43.080;25.634;2023-05-07T14:24:39;8.18;;;6.15;;
12208;SDS011;6167;43.080;25.634;2023-05-07T14:27:08;3.97;;;2.90;;
12208;SDS011;6167;43.080;25.634;2023-05-07T14:29:34;4.65;;;2.40;;
12208;SDS011;6167;43.080;25.634;2023-05-07T14:32:01;2.55;;;2.30;;
12208;SDS011;6167;43.080;25.634;2023-05-07T14:34:29;2.70;;;2.50;;
12208;SDS011;6167;43.080;25.634;2023-05-07T14:36:55;3.80;;;2.47;;
12208;SDS011;6167;43.080;25.634;2023-05-07T14:39:22;2.85;;;2.15;;
12208;SDS011;6167;43.080;25.634;2023-05-07T14:41:50;3.15;;;2.88;;
12208;SDS011;6167;43.080;25.634;2023-05-07T14:44:20;2.40;;;2.20;;
12208;SDS011;6167;43.080;25.634;2023-05-07T14:46:48;3.50;;;2.47;;
12208;SDS011;6167;43.080;25.634;2023-05-07T14:49:14;3.78;;;2.40;;
12208;SDS011;6167;43.080;25.634;2023-05-07T14:51:43;4.18;;;2.75;;
12208;SDS011;6167;43.080;25.634;2023-05-07T14:54:10;4.97;;;2.50;;